Time;durP1;ratioP1;P1;durP2;ratioP2;P2;SDS_P1;SDS_P2;PMS_P1;PMS_P2;Temp;Humidity;BMP_temperature;BMP_pressure;BME280_temperature;BME280_humidity;BME280_pressure;Samples;Min_cycle;Max_cycle;Signal;HPM_P1;HPM_P2
2022/05/01 00:02:06;;;;;;;6.20;4.33;;;9.30;71.90;;;;;;5033027;28;20182;-65
2022/05/01 00:04:32;;;;;;;6.20;4.83;;;9.30;72.10;;;;;;5032556;28;20237;-64
2022/05/01 00:06:58;;;;;;;4.53;4.13;;;9.20;72.30;;;;;;5049848;28;20210;-65
2022/05/01 00:09:24;;;;;;;6.37;4.63;;;9.20;72.20;;;;;;5049406;28;20442;-65
2022/05/01 00:11:49;;;;;;;6.20;4.30;;;9.10;72.20;;;;;;5034153;28;20194;-65
2022/05/01 00:14:15;;;;;;;6.03;4.63;;;9.10;72.10;;;;;;5022871;28;20179;-65
2022/05/01 00:16:41;;;;;;;6.57;4.17;;;9.10;72.10;;;;;;4997134;28;20183;-66
2022/05/01 00:19:10;;;;;;;4.57;4.17;;;9.10;72.00;;;;;;5013184;28;20191;-65
2022/05/01 00:21:37;;;;;;;5.83;4.30;;;9.10;72.20;;;;;;5017076;28;20217;-65
2022/05/01 00:24:04;;;;;;;7.53;5.00;;;9.10;72.30;;;;;;5006821;28;20509;-65
2022/05/01 00:26:29;;;;;;;4.70;4.20;;;9.10;72.50;;;;;;5022521;28;20441;-65
2022/05/01 00:28:55;;;;;;;4.90;4.13;;;9.10;72.60;;;;;;5013526;28;20494;-65
2022/05/01 00:31:21;;;;;;;4.43;3.90;;;9.10;72.80;;;;;;4999080;28;20211;-65
2022/05/01 00:36:31;;;;;;;6.43;4.30;;;9.20;72.80;;;;;;5031980;28;20214;-65
2022/05/01 00:39:02;;;;;;;5.77;4.43;;;9.20;73.00;;;;;;5032575;28;20556;-66
2022/05/01 00:41:37;;;;;;;7.23;4.83;;;9.20;72.70;;;;;;5033053;28;20436;-66
2022/05/01 00:44:11;;;;;;;6.00;4.80;;;9.20;72.70;;;;;;5032474;28;20433;-67
2022/05/01 00:46:51;;;;;;;6.43;4.20;;;9.20;73.10;;;;;;5035091;28;20501;-67
2022/05/01 00:49:25;;;;;;;6.80;4.63;;;9.20;73.40;;;;;;5020873;28;20418;-67
2022/05/01 00:51:58;;;;;;;4.87;4.43;;;9.10;73.40;;;;;;5036512;28;20468;-67
2022/05/01 00:54:28;;;;;;;5.17;4.67;;;9.10;73.20;;;;;;5036548;28;20464;-67
2022/05/01 00:56:56;;;;;;;5.67;4.63;;;9.00;73.20;;;;;;5059606;28;20440;-67
2022/05/01 00:59:23;;;;;;;4.40;4.00;;;9.00;73.30;;;;;;5018262;28;20488;-67
2022/05/01 01:01:50;;;;;;;5.83;4.77;;;9.00;73.20;;;;;;5035994;28;20460;-67
2022/05/01 01:04:16;;;;;;;6.97;4.30;;;9.00;72.80;;;;;;5022233;28;20673;-66
2022/05/01 01:06:43;;;;;;;5.23;4.40;;;8.90;73.20;;;;;;5012595;28;20430;-68
2022/05/01 01:09:09;;;;;;;4.93;4.23;;;8.90;73.20;;;;;;5019593;28;20183;-67
2022/05/01 01:11:36;;;;;;;6.37;4.83;;;8.90;72.90;;;;;;5016213;28;20565;-66
2022/05/01 01:14:05;;;;;;;9.77;4.83;;;8.90;73.10;;;;;;5051969;28;20447;-66
2022/05/01 01:16:32;;;;;;;5.13;4.33;;;8.90;73.10;;;;;;5017392;28;20436;-66
2022/05/01 01:18:58;;;;;;;8.57;4.30;;;8.90;73.20;;;;;;5046643;28;20448;-66
2022/05/01 01:21:24;;;;;;;5.97;4.90;;;8.80;73.50;;;;;;5019598;28;20430;-66
2022/05/01 01:23:52;;;;;;;6.00;4.67;;;8.80;73.70;;;;;;5012263;28;20449;-66
2022/05/01 01:26:17;;;;;;;5.97;4.33;;;8.80;73.80;;;;;;5049508;28;20191;-66
2022/05/01 01:28:43;;;;;;;4.77;4.37;;;8.80;74.00;;;;;;5017174;28;20422;-66
2022/05/01 01:33:59;;;;;;;7.40;4.93;;;8.80;74.10;;;;;;5036532;28;20194;-66
2022/05/01 01:36:28;;;;;;;7.03;4.87;;;8.80;74.30;;;;;;5035916;28;20410;-66
2022/05/01 01:38:55;;;;;;;4.93;4.37;;;8.80;73.90;;;;;;5023150;28;20501;-66
2022/05/01 01:41:22;;;;;;;6.03;4.17;;;8.80;73.80;;;;;;5015885;28;20469;-66
2022/05/01 01:43:49;;;;;;;5.07;4.67;;;8.80;74.00;;;;;;4999477;28;20929;-66
2022/05/01 01:46:15;;;;;;;5.13;4.50;;;8.70;74.30;;;;;;5015815;28;20434;-66
2022/05/01 01:48:41;;;;;;;5.90;4.73;;;8.80;74.70;;;;;;5049575;28;20437;-66
2022/05/01 01:51:06;;;;;;;5.60;5.10;;;8.80;74.70;;;;;;5022343;28;20464;-66
2022/05/01 01:53:35;;;;;;;5.97;5.20;;;8.80;74.50;;;;;;5036681;28;20163;-66
2022/05/01 01:56:02;;;;;;;5.47;4.27;;;8.80;74.50;;;;;;5012725;28;20186;-66
2022/05/01 01:58:28;;;;;;;5.70;4.87;;;8.80;74.60;;;;;;5051661;28;20465;-66
2022/05/01 02:00:55;;;;;;;7.40;4.80;;;8.80;74.90;;;;;;5035229;28;20398;-66
2022/05/01 02:03:20;;;;;;;4.70;3.93;;;8.90;74.90;;;;;;5032212;28;20484;-66
2022/05/01 02:05:47;;;;;;;4.97;4.47;;;8.90;75.00;;;;;;5006157;28;20410;-66
2022/05/01 02:08:13;;;;;;;5.00;4.50;;;8.90;75.00;;;;;;5018269;28;20187;-66
2022/05/01 02:10:39;;;;;;;5.60;4.30;;;8.90;75.20;;;;;;5036543;28;20402;-66
2022/05/01 02:13:06;;;;;;;5.07;4.57;;;9.00;75.30;;;;;;5018699;28;20490;-66
2022/05/01 02:15:32;;;;;;;5.20;4.50;;;9.10;74.80;;;;;;5018986;28;20233;-66
2022/05/01 02:17:58;;;;;;;8.10;4.97;;;9.10;75.10;;;;;;5018253;28;20429;-66
2022/05/01 02:20:25;;;;;;;6.47;4.33;;;9.10;75.30;;;;;;5051584;28;20414;-66
2022/05/01 02:22:53;;;;;;;5.33;4.37;;;9.20;75.10;;;;;;5060684;28;20437;-66
2022/05/01 02:25:21;;;;;;;5.30;4.80;;;9.20;75.00;;;;;;5015108;28;20426;-66
2022/05/01 02:27:47;;;;;;;6.43;4.73;;;9.20;75.00;;;;;;5014872;28;20463;-66
2022/05/01 02:30:13;;;;;;;5.17;4.50;;;9.20;75.20;;;;;;5025328;28;20521;-66
2022/05/01 02:32:40;;;;;;;5.63;5.00;;;9.30;75.00;;;;;;5034117;28;20571;-65
2022/05/01 02:35:07;;;;;;;6.80;5.43;;;9.20;74.80;;;;;;5068506;28;20441;-65
2022/05/01 02:37:33;;;;;;;5.10;4.60;;;9.30;75.00;;;;;;5050741;28;20475;-65
2022/05/01 02:39:58;;;;;;;5.20;4.70;;;9.30;74.90;;;;;;5018809;28;20516;-66
2022/05/01 02:42:24;;;;;;;4.93;4.40;;;9.30;74.70;;;;;;5018161;28;20183;-66
2022/05/01 02:44:50;;;;;;;5.20;4.70;;;9.30;74.60;;;;;;5015097;28;20190;-66
2022/05/01 02:47:15;;;;;;;5.60;4.73;;;9.30;75.00;;;;;;4998279;28;20215;-66
2022/05/01 02:49:42;;;;;;;6.17;4.70;;;9.30;75.30;;;;;;5014785;28;20176;-66
2022/05/01 02:52:08;;;;;;;7.27;4.63;;;9.30;75.10;;;;;;5004287;28;20226;-66
2022/05/01 02:54:34;;;;;;;6.57;4.90;;;9.40;75.20;;;;;;5014534;28;20422;-66
2022/05/01 02:57:00;;;;;;;4.97;4.47;;;9.40;75.60;;;;;;4998267;28;20172;-66
2022/05/01 02:59:26;;;;;;;6.03;4.70;;;9.50;75.30;;;;;;5014250;28;20274;-66
2022/05/01 03:01:52;;;;;;;5.57;4.40;;;9.50;75.40;;;;;;5008220;28;20520;-66
2022/05/01 03:04:18;;;;;;;5.53;4.50;;;9.50;75.00;;;;;;5019041;28;20192;-66
2022/05/01 03:06:43;;;;;;;5.40;4.50;;;9.60;75.20;;;;;;5028620;28;20179;-66
2022/05/01 03:09:09;;;;;;;5.40;4.83;;;9.60;74.90;;;;;;5033394;28;20191;-66
2022/05/01 03:11:38;;;;;;;5.47;4.47;;;9.60;74.80;;;;;;5050472;28;20215;-66
2022/05/01 03:14:04;;;;;;;7.67;5.50;;;9.70;74.60;;;;;;5033551;28;20187;-66
2022/05/01 03:16:30;;;;;;;6.27;4.90;;;9.80;74.40;;;;;;5017639;28;20418;-66
2022/05/01 03:24:24;;;;;;;5.53;5.00;;;9.80;74.50;;;;;;5026736;28;20445;-66
2022/05/01 03:26:50;;;;;;;6.23;4.60;;;9.80;74.80;;;;;;5017289;28;20429;-66
2022/05/01 03:29:17;;;;;;;6.80;5.80;;;9.90;74.80;;;;;;5016555;28;20183;-66
2022/05/01 03:31:44;;;;;;;7.50;5.00;;;9.90;75.70;;;;;;5001697;28;20211;-67
2022/05/01 03:34:11;;;;;;;6.47;5.20;;;9.90;75.90;;;;;;5051840;28;20447;-67
2022/05/01 03:36:37;;;;;;;9.73;5.43;;;9.80;75.60;;;;;;5034256;28;20453;-67
2022/05/01 03:39:05;;;;;;;5.80;5.20;;;9.80;75.50;;;;;;5017114;28;20496;-67
2022/05/01 03:41:30;;;;;;;8.10;5.67;;;9.80;75.90;;;;;;5013839;28;20270;-67
2022/05/01 03:43:56;;;;;;;5.63;5.13;;;9.80;76.60;;;;;;5013722;28;20522;-67
2022/05/01 03:46:23;;;;;;;8.80;5.83;;;9.80;76.80;;;;;;5031387;28;20188;-67
2022/05/01 03:48:50;;;;;;;7.20;5.60;;;9.80;76.20;;;;;;5038216;28;20246;-67
2022/05/01 03:51:16;;;;;;;6.90;5.37;;;9.90;76.30;;;;;;5013455;28;20470;-67
2022/05/01 03:53:42;;;;;;;7.73;5.27;;;9.80;75.40;;;;;;4997745;28;20541;-67
2022/05/01 03:56:08;;;;;;;7.90;5.00;;;9.90;75.50;;;;;;5046518;28;20183;-67
2022/05/01 03:58:34;;;;;;;6.63;5.27;;;9.90;75.30;;;;;;5022096;28;20484;-67
2022/05/01 04:00:59;;;;;;;6.67;4.67;;;9.90;75.40;;;;;;5033237;28;20172;-67
2022/05/01 04:03:25;;;;;;;6.20;4.80;;;9.90;74.60;;;;;;5010398;28;20718;-67
2022/05/01 04:05:51;;;;;;;6.93;5.33;;;9.90;74.10;;;;;;5047762;28;20242;-67
2022/05/01 04:08:18;;;;;;;5.63;5.10;;;10.00;73.60;;;;;;5030188;28;20230;-67
2022/05/01 04:10:44;;;;;;;6.17;4.90;;;10.00;73.90;;;;;;5033177;28;20428;-65
2022/05/01 04:13:11;;;;;;;5.67;5.13;;;10.00;73.40;;;;;;5048344;28;20183;-66
2022/05/01 04:15:37;;;;;;;5.87;4.73;;;10.00;73.80;;;;;;4997172;28;20476;-65
2022/05/01 04:18:07;;;;;;;7.63;5.50;;;10.00;74.10;;;;;;5015869;28;20415;-72
2022/05/01 04:20:33;;;;;;;6.83;5.20;;;10.00;74.50;;;;;;5041312;28;20190;-70
2022/05/01 04:22:59;;;;;;;6.93;5.50;;;10.10;75.10;;;;;;5019322;28;20475;-70
2022/05/01 04:25:29;;;;;;;6.87;5.37;;;10.10;75.50;;;;;;5016309;28;20518;-70
2022/05/01 04:28:01;;;;;;;5.70;5.10;;;10.20;75.60;;;;;;5065968;28;20413;-70
2022/05/01 04:30:27;;;;;;;6.63;5.53;;;10.20;75.30;;;;;;5020789;28;20430;-71
2022/05/01 04:33:10;;;;;;;8.03;5.23;;;10.30;75.20;;;;;;5000690;28;20454;-68
2022/05/01 04:35:40;;;;;;;6.73;4.63;;;10.40;74.80;;;;;;5026748;28;20426;-68
2022/05/01 04:38:07;;;;;;;5.47;4.97;;;10.50;74.40;;;;;;5064794;28;20261;-68
2022/05/01 04:40:36;;;;;;;9.03;5.03;;;10.50;73.70;;;;;;5019316;28;20229;-68
2022/05/01 04:43:06;;;;;;;6.30;5.20;;;10.60;73.80;;;;;;5036529;28;20218;-68
2022/05/01 04:45:33;;;;;;;6.90;4.90;;;10.60;73.10;;;;;;5038056;28;20191;-69
2022/05/01 04:47:59;;;;;;;5.70;4.70;;;10.70;72.70;;;;;;5070222;28;20405;-68
2022/05/01 04:50:26;;;;;;;4.97;4.40;;;10.70;73.10;;;;;;5058472;28;20265;-68
2022/05/01 04:52:52;;;;;;;7.17;4.70;;;10.70;73.30;;;;;;5019580;28;20206;-68
2022/05/01 04:55:17;;;;;;;7.40;5.00;;;10.70;73.90;;;;;;5035705;28;20183;-68
2022/05/01 04:57:43;;;;;;;5.30;4.80;;;10.70;74.70;;;;;;5016549;28;20218;-68
2022/05/01 05:00:10;;;;;;;5.03;4.10;;;10.60;74.90;;;;;;5002746;28;20195;-69
2022/05/01 05:02:38;;;;;;;7.27;4.63;;;10.60;74.90;;;;;;5034695;28;20195;-67
2022/05/01 05:05:05;;;;;;;7.03;5.30;;;10.70;74.90;;;;;;5019995;28;20198;-66
2022/05/01 05:07:31;;;;;;;5.50;4.90;;;10.60;74.70;;;;;;5020066;28;20183;-68
2022/05/01 05:09:57;;;;;;;5.50;4.90;;;10.70;74.40;;;;;;5019230;28;20191;-67
2022/05/01 05:12:24;;;;;;;5.87;5.27;;;10.80;74.40;;;;;;5052779;28;20218;-67
2022/05/01 05:14:52;;;;;;;5.57;5.07;;;10.80;74.70;;;;;;5065960;28;20171;-68
2022/05/01 05:17:22;;;;;;;5.43;4.10;;;10.80;74.90;;;;;;5035773;28;20210;-68
2022/05/01 05:19:48;;;;;;;7.13;5.17;;;10.90;75.10;;;;;;5036709;28;20266;-69
2022/05/01 05:22:14;;;;;;;7.97;5.33;;;10.90;75.10;;;;;;5052580;28;20194;-67
2022/05/01 05:24:40;;;;;;;8.10;5.77;;;10.90;76.10;;;;;;5034831;28;20426;-66
2022/05/01 05:27:06;;;;;;;9.00;5.80;;;10.90;78.00;;;;;;5032357;28;20190;-67
2022/05/01 05:29:31;;;;;;;8.07;6.03;;;10.80;78.90;;;;;;5062767;28;20183;-67
2022/05/01 05:31:57;;;;;;;8.00;5.80;;;10.70;79.60;;;;;;5015613;28;20236;-68
2022/05/01 05:34:23;;;;;;;5.40;4.90;;;10.60;80.90;;;;;;5033845;28;20191;-68
2022/05/01 05:36:48;;;;;;;9.83;6.73;;;10.50;82.10;;;;;;5015507;28;20195;-64
2022/05/01 05:39:14;;;;;;;6.73;6.10;;;10.50;83.10;;;;;;5032368;28;20236;-66
2022/05/01 05:41:40;;;;;;;7.33;6.63;;;10.40;83.70;;;;;;5032651;28;20249;-68
2022/05/01 05:44:06;;;;;;;7.27;6.57;;;10.30;83.80;;;;;;5021824;28;20210;-67
2022/05/01 05:46:31;;;;;;;9.13;7.40;;;10.30;85.20;;;;;;5035552;28;20190;-68
2022/05/01 05:48:57;;;;;;;9.30;8.20;;;10.20;85.70;;;;;;5052333;28;20171;-66
2022/05/01 05:51:23;;;;;;;11.20;8.13;;;10.20;86.70;;;;;;5051062;28;20241;-65
2022/05/01 05:53:52;;;;;;;10.77;8.93;;;10.20;86.90;;;;;;4999674;28;20237;-66
2022/05/01 05:56:19;;;;;;;10.97;8.00;;;10.20;87.20;;;;;;5025800;28;20187;-67
2022/05/01 05:58:45;;;;;;;9.33;7.27;;;10.30;86.80;;;;;;5010206;28;20195;-69
2022/05/01 06:01:11;;;;;;;9.60;8.30;;;10.30;86.70;;;;;;5048895;28;20411;-68
2022/05/01 06:03:40;;;;;;;10.37;7.60;;;10.30;87.10;;;;;;5035296;28;20240;-68
2022/05/01 06:06:06;;;;;;;11.37;8.47;;;10.30;87.40;;;;;;5068704;28;20186;-66
2022/05/01 06:08:33;;;;;;;10.57;7.70;;;10.30;86.60;;;;;;5035166;28;20511;-70
2022/05/01 06:10:58;;;;;;;11.63;8.07;;;10.30;86.60;;;;;;5035679;28;20449;-70
2022/05/01 06:13:24;;;;;;;12.83;8.00;;;10.30;85.40;;;;;;5017744;28;20458;-69
2022/05/01 06:15:50;;;;;;;9.70;8.70;;;10.30;86.00;;;;;;4998788;28;20230;-69
2022/05/01 06:18:15;;;;;;;10.73;8.37;;;10.30;86.20;;;;;;5016265;28;20665;-68
2022/05/01 06:20:41;;;;;;;11.10;7.77;;;10.30;85.90;;;;;;4999071;28;20176;-69
2022/05/01 06:23:07;;;;;;;16.77;9.00;;;10.30;85.60;;;;;;5014991;28;20195;-69
2022/05/01 06:25:36;;;;;;;11.13;9.03;;;10.30;86.50;;;;;;4998740;28;20192;-70
2022/05/01 06:28:01;;;;;;;10.70;7.97;;;10.40;87.10;;;;;;4998957;28;20206;-69
2022/05/01 06:30:27;;;;;;;12.93;8.87;;;10.40;86.50;;;;;;5000567;28;20191;-67
2022/05/01 06:32:53;;;;;;;17.00;9.27;;;10.40;86.60;;;;;;5012282;28;20214;-69
2022/05/01 06:35:19;;;;;;;12.53;8.53;;;10.50;86.70;;;;;;5035117;28;20211;-69
2022/05/01 06:37:45;;;;;;;11.40;8.57;;;10.50;86.90;;;;;;5048827;28;20197;-68
2022/05/01 06:40:11;;;;;;;12.93;8.47;;;10.60;85.80;;;;;;5031149;28;20274;-68
2022/05/01 06:42:37;;;;;;;9.07;7.43;;;10.70;85.30;;;;;;5031403;28;20195;-67
2022/05/01 06:45:04;;;;;;;10.40;8.10;;;10.80;83.90;;;;;;5030958;28;20196;-67
2022/05/01 06:47:30;;;;;;;8.70;7.47;;;10.80;84.30;;;;;;5057523;28;20195;-67
2022/05/01 06:49:56;;;;;;;9.17;7.03;;;10.80;82.40;;;;;;5019257;28;20194;-68
2022/05/01 06:52:25;;;;;;;9.63;7.03;;;11.00;81.80;;;;;;5018032;28;20207;-68
2022/05/01 06:54:54;;;;;;;8.53;7.13;;;11.00;81.40;;;;;;5034731;28;20175;-68
2022/05/01 06:57:20;;;;;;;8.43;7.63;;;10.90;81.90;;;;;;5015173;28;20193;-68
2022/05/01 06:59:46;;;;;;;9.20;7.47;;;11.10;82.40;;;;;;5040086;28;20434;-67
2022/05/01 07:02:13;;;;;;;8.87;7.77;;;11.20;83.00;;;;;;4998188;28;20207;-68
2022/05/01 07:04:38;;;;;;;16.10;8.53;;;11.20;82.50;;;;;;5014396;28;20196;-68
2022/05/01 07:07:04;;;;;;;8.83;7.37;;;11.30;81.90;;;;;;5031774;28;20179;-70
2022/05/01 07:09:29;;;;;;;9.23;7.83;;;11.30;81.40;;;;;;5050072;28;20187;-70
2022/05/01 07:11:55;;;;;;;9.00;7.20;;;11.30;82.30;;;;;;5017041;28;20222;-68
2022/05/01 07:14:21;;;;;;;7.83;6.23;;;11.30;82.40;;;;;;5016702;28;20210;-66
2022/05/01 07:16:47;;;;;;;7.70;6.90;;;11.30;83.60;;;;;;5017594;28;20193;-67
2022/05/01 07:19:14;;;;;;;7.43;6.17;;;11.30;82.60;;;;;;5017241;28;20191;-67
2022/05/01 07:21:40;;;;;;;30.03;20.77;;;11.30;82.70;;;;;;5050826;28;20179;-66
2022/05/01 07:24:06;;;;;;;20.13;15.63;;;11.40;83.90;;;;;;5039409;28;20192;-67
2022/05/01 07:26:35;;;;;;;20.57;16.53;;;11.50;84.30;;;;;;5031599;28;20191;-68
2022/05/01 07:29:02;;;;;;;22.70;18.40;;;11.50;83.70;;;;;;5060490;28;20194;-68
2022/05/01 07:31:28;;;;;;;19.33;13.27;;;11.50;83.20;;;;;;5013636;28;20220;-68
2022/05/01 07:33:53;;;;;;;11.50;9.87;;;11.40;83.60;;;;;;5016130;28;20276;-65
2022/05/01 07:36:19;;;;;;;10.57;9.47;;;11.30;82.50;;;;;;5033633;28;20187;-65
2022/05/01 07:38:46;;;;;;;15.40;12.63;;;11.30;83.40;;;;;;5032391;28;20235;-68
2022/05/01 07:41:12;;;;;;;10.70;9.53;;;11.30;83.30;;;;;;5017020;28;20229;-67
2022/05/01 07:43:38;;;;;;;11.50;10.27;;;11.20;82.50;;;;;;5032899;28;20175;-69
2022/05/01 07:46:05;;;;;;;9.77;8.60;;;11.20;82.90;;;;;;5031508;28;20191;-67
2022/05/01 07:48:31;;;;;;;9.80;8.80;;;11.10;83.20;;;;;;5066467;28;20182;-66
2022/05/01 07:50:56;;;;;;;15.00;13.40;;;11.20;84.00;;;;;;5032711;28;20219;-68
2022/05/01 07:53:22;;;;;;;18.93;15.53;;;11.20;83.90;;;;;;5002867;28;20273;-67
2022/05/01 07:55:48;;;;;;;14.90;13.33;;;11.20;84.10;;;;;;4998829;28;20207;-67
2022/05/01 07:58:13;;;;;;;10.87;9.70;;;11.20;84.70;;;;;;5031901;28;20179;-68
2022/05/01 08:00:39;;;;;;;8.40;7.33;;;11.20;84.30;;;;;;5017069;28;20171;-66
2022/05/01 08:05:49;;;;;;;8.37;7.30;;;11.20;84.20;;;;;;5033500;28;20205;-68
2022/05/01 08:08:15;;;;;;;9.57;8.57;;;11.20;84.10;;;;;;5017165;28;20184;-67
2022/05/01 08:10:41;;;;;;;11.30;7.57;;;11.20;84.90;;;;;;5046382;28;20211;-67
2022/05/01 08:13:07;;;;;;;9.07;7.87;;;11.20;85.00;;;;;;5016170;28;20206;-68
2022/05/01 08:15:33;;;;;;;9.23;8.10;;;11.10;83.80;;;;;;5049162;28;20187;-68
2022/05/01 08:21:05;;;;;;;12.93;9.47;;;11.20;85.40;;;;;;5063611;28;20179;-68
2022/05/01 08:23:29;;;;;;;10.17;7.87;;;11.20;84.00;;;;;;5019714;28;20316;-67
2022/05/01 08:25:55;;;;;;;9.47;8.23;;;11.30;84.50;;;;;;5009685;28;20290;-68
2022/05/01 08:28:20;;;;;;;9.60;8.60;;;11.30;85.30;;;;;;5003534;28;20190;-66
2022/05/01 08:30:47;;;;;;;8.50;7.70;;;11.50;85.40;;;;;;5032627;28;20193;-66
2022/05/01 08:33:12;;;;;;;8.87;8.03;;;11.40;85.40;;;;;;5016333;28;20289;-68
2022/05/01 08:35:38;;;;;;;9.07;8.13;;;11.50;85.30;;;;;;5014874;28;20285;-69
2022/05/01 08:38:05;;;;;;;8.63;7.83;;;11.50;84.80;;;;;;5015407;28;20235;-68
2022/05/01 08:40:32;;;;;;;10.90;8.57;;;11.60;84.20;;;;;;5049616;28;20193;-68
2022/05/01 08:43:00;;;;;;;9.93;8.27;;;11.50;84.30;;;;;;5031079;28;20246;-68
2022/05/01 08:45:33;;;;;;;11.70;8.00;;;11.60;85.10;;;;;;5049741;28;20194;-69
2022/05/01 08:48:07;;;;;;;13.07;8.30;;;11.70;83.30;;;;;;5057376;28;20211;-68
2022/05/01 08:50:35;;;;;;;10.47;7.93;;;11.60;83.30;;;;;;5028781;28;20190;-67
2022/05/01 08:53:02;;;;;;;8.33;7.53;;;11.70;83.90;;;;;;5062707;28;20203;-68
2022/05/01 08:55:30;;;;;;;9.13;7.90;;;11.80;82.80;;;;;;5031717;28;20233;-68
2022/05/01 08:57:57;;;;;;;8.90;7.50;;;11.80;82.30;;;;;;5016202;28;20259;-68
2022/05/01 09:00:23;;;;;;;9.67;8.67;;;11.70;82.70;;;;;;5032438;28;20256;-69
2022/05/01 09:02:48;;;;;;;11.20;8.50;;;11.80;83.50;;;;;;5030365;28;20203;-68
2022/05/01 09:05:15;;;;;;;9.67;8.10;;;11.80;84.20;;;;;;5015649;28;20194;-67
2022/05/01 09:07:40;;;;;;;8.40;7.60;;;11.70;83.70;;;;;;5032456;28;20223;-68
2022/05/01 09:10:08;;;;;;;9.20;7.97;;;11.80;84.00;;;;;;5036521;28;20594;-67
2022/05/01 09:12:49;;;;;;;10.10;8.87;;;11.70;84.90;;;;;;5019686;28;20260;-67
2022/05/01 09:15:27;;;;;;;9.97;8.57;;;11.70;85.30;;;;;;5036198;28;20199;-67
2022/05/01 09:18:22;;;;;;;10.87;8.67;;;11.80;85.50;;;;;;5035118;28;20273;-68
2022/05/01 09:21:05;;;;;;;13.77;9.73;;;11.80;84.50;;;;;;5026601;28;20191;-68
2022/05/01 09:23:47;;;;;;;14.03;9.30;;;11.80;84.30;;;;;;5035039;28;20191;-67
2022/05/01 09:26:14;;;;;;;10.70;9.47;;;11.80;85.00;;;;;;5031522;28;20187;-68
2022/05/01 09:28:47;;;;;;;11.90;9.13;;;11.80;84.50;;;;;;5037077;28;20240;-68
2022/05/01 09:31:13;;;;;;;13.27;8.50;;;11.70;84.80;;;;;;5035792;28;20266;-68
2022/05/01 09:33:39;;;;;;;18.53;10.43;;;11.60;84.30;;;;;;5034255;28;20274;-68
2022/05/01 09:36:05;;;;;;;14.07;9.30;;;11.50;85.00;;;;;;5008868;28;20192;-69
2022/05/01 09:38:31;;;;;;;13.63;9.40;;;11.50;85.20;;;;;;5048767;28;20239;-68
2022/05/01 09:40:58;;;;;;;15.40;10.00;;;11.50;85.70;;;;;;5044316;28;20338;-68
2022/05/01 09:43:36;;;;;;;12.00;9.90;;;11.50;85.40;;;;;;5032248;28;20168;-69
2022/05/01 09:46:22;;;;;;;11.37;9.23;;;11.50;84.90;;;;;;5015922;28;20326;-66
2022/05/01 09:49:00;;;;;;;11.90;9.60;;;11.50;84.70;;;;;;5028910;28;20246;-68
2022/05/01 09:51:31;;;;;;;11.30;9.23;;;11.50;85.50;;;;;;5066130;28;20211;-69
2022/05/01 09:53:58;;;;;;;9.87;8.87;;;11.50;85.00;;;;;;4978524;28;20294;-68
2022/05/01 09:56:24;;;;;;;12.43;9.47;;;11.50;85.60;;;;;;4979993;28;20219;-68
2022/05/01 09:59:01;;;;;;;11.80;8.57;;;11.50;85.40;;;;;;5014178;28;20187;-68
2022/05/01 10:01:28;;;;;;;11.23;9.63;;;11.50;85.70;;;;;;5013983;28;20180;-68
2022/05/01 10:03:54;;;;;;;9.60;8.63;;;11.60;86.10;;;;;;5011354;28;20245;-67
2022/05/01 10:06:20;;;;;;;9.70;7.97;;;11.60;85.70;;;;;;4993392;28;20189;-68
2022/05/01 10:08:47;;;;;;;11.23;8.43;;;11.70;85.30;;;;;;5012034;28;20206;-68
2022/05/01 10:11:16;;;;;;;7.63;6.77;;;11.80;86.10;;;;;;4997295;28;20191;-69
2022/05/01 10:13:43;;;;;;;8.33;7.53;;;11.90;85.40;;;;;;5012634;28;20200;-68
2022/05/01 10:16:11;;;;;;;10.30;8.20;;;12.10;85.40;;;;;;5013058;28;20210;-68
2022/05/01 10:18:38;;;;;;;8.13;7.17;;;12.30;82.70;;;;;;5011296;28;20188;-68
2022/05/01 10:21:06;;;;;;;7.97;7.17;;;12.50;82.50;;;;;;5009083;28;20188;-67
2022/05/01 10:23:32;;;;;;;10.87;7.73;;;12.60;80.30;;;;;;4996375;28;20187;-69
2022/05/01 10:26:09;;;;;;;8.77;7.93;;;12.60;81.70;;;;;;5012568;28;20194;-68
2022/05/01 10:28:43;;;;;;;9.40;7.63;;;12.70;83.20;;;;;;5013740;28;20171;-69
2022/05/01 10:34:18;;;;;;;7.57;6.80;;;12.80;81.30;;;;;;4994949;28;20184;-68
2022/05/01 10:36:59;;;;;;;6.77;6.17;;;12.90;80.20;;;;;;4992719;28;20288;-68
2022/05/01 10:39:33;;;;;;;7.60;6.90;;;13.00;79.70;;;;;;4993639;28;20232;-69
2022/05/01 10:42:00;;;;;;;6.77;6.07;;;13.30;81.00;;;;;;4993612;28;20288;-68
2022/05/01 10:44:30;;;;;;;6.93;6.07;;;13.40;79.70;;;;;;4978801;28;20196;-68
2022/05/01 10:47:12;;;;;;;8.23;7.17;;;13.70;80.70;;;;;;5013940;28;20196;-68
2022/05/01 10:49:41;;;;;;;7.90;6.80;;;14.00;81.30;;;;;;5011349;28;20227;-66
2022/05/01 10:52:20;;;;;;;6.87;5.90;;;14.40;80.40;;;;;;5013103;28;20302;-67
2022/05/01 10:54:54;;;;;;;7.60;6.80;;;14.60;76.60;;;;;;4997388;28;20191;-67
2022/05/01 10:57:23;;;;;;;6.20;5.60;;;14.80;77.50;;;;;;5013453;28;20279;-68
2022/05/01 10:59:49;;;;;;;8.20;5.50;;;15.00;76.70;;;;;;5014433;28;20203;-67
2022/05/01 11:02:28;;;;;;;9.60;7.07;;;15.30;77.80;;;;;;5012866;28;20184;-68
2022/05/01 11:04:55;;;;;;;7.13;6.17;;;15.50;72.50;;;;;;4992369;28;20206;-68
2022/05/01 11:07:23;;;;;;;9.10;7.07;;;15.50;72.50;;;;;;5009032;28;20207;-68
2022/05/01 11:09:50;;;;;;;6.57;5.17;;;15.30;73.10;;;;;;4977274;28;20180;-67
2022/05/01 11:12:19;;;;;;;6.13;5.53;;;15.30;73.80;;;;;;4994891;28;20243;-67
2022/05/01 11:15:14;;;;;;;8.60;5.77;;;15.10;72.60;;;;;;5011981;28;20268;-67
2022/05/01 11:17:40;;;;;;;5.57;5.00;;;15.10;71.50;;;;;;5011512;28;20264;-67
2022/05/01 11:20:24;;;;;;;6.13;5.10;;;15.20;73.00;;;;;;5013040;28;20256;-68
2022/05/01 11:22:50;;;;;;;5.93;5.30;;;15.30;71.80;;;;;;4995967;28;20219;-68
2022/05/01 11:26:04;;;;;;;5.20;4.80;;;15.70;71.60;;;;;;4976902;28;20200;-68
2022/05/01 11:29:09;;;;;;;5.83;4.47;;;15.90;70.60;;;;;;4967216;28;20229;-68
2022/05/01 11:31:38;;;;;;;5.00;4.57;;;16.10;68.90;;;;;;4968978;28;20289;-68
2022/05/01 11:34:16;;;;;;;6.97;4.70;;;16.00;68.60;;;;;;5010740;28;20191;-68
2022/05/01 11:36:58;;;;;;;4.60;3.93;;;16.20;69.30;;;;;;5012780;28;20186;-67
2022/05/01 11:39:47;;;;;;;5.27;4.77;;;16.40;70.20;;;;;;5012414;28;20242;-68
2022/05/01 11:42:25;;;;;;;5.83;4.40;;;16.50;66.80;;;;;;4983724;28;20192;-67
2022/05/01 11:44:54;;;;;;;6.10;4.30;;;16.70;67.30;;;;;;5012651;28;20263;-67
2022/05/01 11:47:21;;;;;;;4.67;4.27;;;16.80;67.10;;;;;;5011726;28;20239;-67
2022/05/01 11:49:47;;;;;;;4.80;4.40;;;17.30;66.20;;;;;;5012172;28;20196;-68
2022/05/01 11:52:13;;;;;;;5.43;4.87;;;17.50;66.10;;;;;;4995258;28;20219;-67
2022/05/01 11:54:50;;;;;;;4.30;3.90;;;17.40;63.40;;;;;;4995468;28;20186;-67
2022/05/01 12:02:57;;;;;;;4.67;4.27;;;18.00;61.00;;;;;;4992743;28;20191;-67
2022/05/01 12:05:23;;;;;;;4.90;4.13;;;18.20;60.80;;;;;;4993878;28;20212;-68
2022/05/01 12:07:56;;;;;;;5.77;4.20;;;18.50;59.80;;;;;;5011772;28;20249;-68
2022/05/01 12:10:23;;;;;;;4.20;3.80;;;18.80;57.40;;;;;;5012961;28;20199;-68
2022/05/01 12:12:49;;;;;;;4.57;3.63;;;19.30;56.60;;;;;;5006910;28;20220;-67
2022/05/01 12:15:15;;;;;;;4.60;3.23;;;19.80;55.00;;;;;;4995664;28;20207;-67
2022/05/01 12:17:42;;;;;;;3.53;3.23;;;20.40;53.50;;;;;;5010133;28;20183;-68
2022/05/01 12:20:09;;;;;;;3.20;2.77;;;21.20;50.70;;;;;;5011098;28;20190;-67
2022/05/01 12:22:38;;;;;;;3.40;3.10;;;22.00;49.60;;;;;;4995073;28;20183;-67
2022/05/01 12:25:07;;;;;;;3.13;2.83;;;22.70;47.90;;;;;;4995501;28;20198;-67
2022/05/01 12:27:34;;;;;;;3.27;3.00;;;23.70;46.00;;;;;;4995670;28;20184;-68
2022/05/01 12:30:04;;;;;;;3.10;2.80;;;24.20;42.80;;;;;;4996225;28;20524;-67
2022/05/01 12:32:31;;;;;;;3.17;2.87;;;24.90;40.80;;;;;;5002004;28;20212;-67
2022/05/01 12:35:03;;;;;;;3.10;2.80;;;24.40;41.50;;;;;;5004042;28;20254;-67
2022/05/01 12:37:34;;;;;;;4.03;2.83;;;24.80;41.10;;;;;;5013313;28;20250;-67
2022/05/01 12:39:59;;;;;;;3.60;3.30;;;23.90;42.50;;;;;;5013037;28;20203;-66
2022/05/01 12:45:22;;;;;;;3.03;2.83;;;23.30;42.40;;;;;;4987636;28;20252;-67
2022/05/01 12:47:52;;;;;;;3.10;2.80;;;23.00;44.50;;;;;;5001143;28;20188;-68
2022/05/01 12:50:18;;;;;;;3.43;3.13;;;23.00;43.80;;;;;;4991537;28;20207;-67
2022/05/01 12:52:48;;;;;;;3.00;2.70;;;22.70;43.40;;;;;;5016647;28;20203;-67
2022/05/01 12:55:19;;;;;;;4.23;2.77;;;22.80;43.00;;;;;;5016267;28;20184;-68
2022/05/01 12:57:48;;;;;;;3.17;2.97;;;22.50;43.50;;;;;;5016897;28;20188;-67
2022/05/01 13:00:29;;;;;;;4.37;3.13;;;21.70;45.60;;;;;;5016998;28;20199;-66
2022/05/01 13:03:13;;;;;;;3.03;2.83;;;21.00;46.10;;;;;;5012730;28;20194;-67
2022/05/01 13:05:39;;;;;;;3.23;2.93;;;20.90;46.70;;;;;;5016672;28;20175;-67
2022/05/01 13:08:19;;;;;;;6.43;2.90;;;20.60;47.60;;;;;;4984132;28;20211;-67
2022/05/01 13:11:11;;;;;;;2.97;2.60;;;20.30;48.20;;;;;;5000911;28;20187;-67
2022/05/01 13:13:43;;;;;;;2.87;2.53;;;20.30;49.90;;;;;;5001685;28;20181;-66
2022/05/01 13:16:10;;;;;;;3.27;2.97;;;20.60;48.40;;;;;;4997005;28;20176;-64
2022/05/01 13:18:36;;;;;;;2.50;2.30;;;20.20;48.20;;;;;;4999942;28;20234;-66
2022/05/01 13:21:02;;;;;;;2.90;2.70;;;20.00;48.90;;;;;;5000216;28;20183;-65
2022/05/01 13:23:28;;;;;;;2.90;2.70;;;20.20;49.00;;;;;;5014133;28;20237;-66